createdAt,value
2023-01-04T00:01:19.183Z,22.95
2023-01-04T00:03:45.633Z,22.96
2023-01-04T00:06:11.882Z,22.95
2023-01-04T00:08:38.241Z,22.94
2023-01-04T00:11:04.631Z,22.94
2023-01-04T00:13:30.995Z,22.92
2023-01-04T00:16:02.478Z,22.95
2023-01-04T00:18:23.775Z,22.94
2023-01-04T00:20:50.166Z,22.95
2023-01-04T00:23:16.539Z,22.92
2023-01-04T00:25:42.924Z,22.94
2023-01-04T00:28:09.311Z,22.92
2023-01-04T00:30:35.720Z,22.90
2023-01-04T00:33:02.084Z,22.84
2023-01-04T00:35:45.322Z,22.86
2023-01-04T00:37:54.829Z,22.88
2023-01-04T00:40:21.228Z,22.90
2023-01-04T00:42:47.574Z,22.90
2023-01-04T00:45:13.978Z,22.87
2023-01-04T00:47:40.322Z,22.86
2023-01-04T00:50:06.727Z,22.87
2023-01-04T00:52:33.063Z,22.86
2023-01-04T00:54:59.498Z,22.87
2023-01-04T00:57:25.826Z,22.87
2023-01-04T00:59:52.212Z,22.87
2023-01-04T01:02:18.815Z,22.87
2023-01-04T01:04:45.006Z,22.80
2023-01-04T01:07:11.356Z,22.83
2023-01-04T01:09:37.754Z,22.83
2023-01-04T01:12:04.108Z,22.83
2023-01-04T01:14:30.533Z,22.82
2023-01-04T01:16:58.518Z,22.76
2023-01-04T01:19:23.292Z,22.79
2023-01-04T01:21:49.645Z,22.82
2023-01-04T01:24:16.036Z,22.83
2023-01-04T01:26:42.183Z,22.82
2023-01-04T01:29:08.576Z,22.77
2023-01-04T01:31:34.982Z,22.80
2023-01-04T01:34:01.332Z,22.82
2023-01-04T01:36:27.701Z,22.80
2023-01-04T01:38:54.082Z,22.79
2023-01-04T01:41:20.429Z,22.78
2023-01-04T01:43:46.840Z,22.78
2023-01-04T01:46:13.225Z,22.73
2023-01-04T01:48:39.613Z,22.75
2023-01-04T01:51:05.952Z,22.76
2023-01-04T01:53:32.319Z,22.75
2023-01-04T01:55:58.753Z,22.69
2023-01-04T01:58:25.150Z,22.69
2023-01-04T02:00:51.579Z,22.67
2023-01-04T02:03:18.037Z,22.68
2023-01-04T02:05:44.326Z,22.71
2023-01-04T02:08:10.730Z,22.72
2023-01-04T02:10:37.078Z,22.75
2023-01-04T02:13:03.472Z,22.69
2023-01-04T02:15:29.814Z,22.72
2023-01-04T02:17:56.209Z,22.72
2023-01-04T02:20:22.560Z,22.71
2023-01-04T02:22:48.967Z,22.66
2023-01-04T02:25:15.309Z,22.68
2023-01-04T02:27:41.704Z,22.69
2023-01-04T02:30:08.047Z,22.70
2023-01-04T02:32:34.450Z,22.68
2023-01-04T02:35:00.790Z,22.68
2023-01-04T02:37:27.193Z,22.68
2023-01-04T02:39:53.551Z,22.64
2023-01-04T02:42:19.960Z,22.62
2023-01-04T02:44:46.359Z,22.61
2023-01-04T02:47:12.731Z,22.62
2023-01-04T02:49:39.079Z,22.62
2023-01-04T02:52:05.478Z,22.60
2023-01-04T02:54:31.834Z,22.60
2023-01-04T02:57:04.606Z,22.61
2023-01-04T02:59:24.658Z,22.64
2023-01-04T03:01:51.184Z,22.66
2023-01-04T03:04:17.433Z,22.67
2023-01-04T03:06:43.823Z,22.65
2023-01-04T03:09:10.156Z,22.64
2023-01-04T03:11:36.555Z,22.65
2023-01-04T03:14:02.897Z,22.65
2023-01-04T03:16:29.314Z,22.57
2023-01-04T03:18:55.649Z,22.53
2023-01-04T03:21:22.072Z,22.60
2023-01-04T03:23:48.434Z,22.62
2023-01-04T03:26:14.816Z,22.61
2023-01-04T03:28:41.163Z,22.57
2023-01-04T03:31:07.610Z,22.63
2023-01-04T03:33:33.919Z,22.64
2023-01-04T03:36:00.323Z,22.67
2023-01-04T03:38:26.680Z,22.66
2023-01-04T03:40:53.073Z,22.60
2023-01-04T03:43:19.540Z,22.56
2023-01-04T03:45:45.928Z,22.62
2023-01-04T03:48:12.631Z,22.66
2023-01-04T03:50:39.017Z,22.65
2023-01-04T03:53:05.459Z,22.65
2023-01-04T03:55:31.866Z,22.61
2023-01-04T03:57:58.249Z,22.57
2023-01-04T04:00:24.707Z,22.63
2023-01-04T04:02:50.997Z,22.64
2023-01-04T04:05:17.421Z,22.58
2023-01-04T04:07:43.740Z,22.64
2023-01-04T04:10:10.138Z,22.62
2023-01-04T04:12:36.508Z,22.65
2023-01-04T04:15:02.884Z,22.67
2023-01-04T04:17:29.261Z,22.57
2023-01-04T04:19:55.649Z,22.64
2023-01-04T04:22:22.002Z,22.58
2023-01-04T04:24:48.407Z,22.65
2023-01-04T04:27:14.736Z,22.67
2023-01-04T04:29:41.136Z,22.62
2023-01-04T04:32:07.555Z,22.63
2023-01-04T04:34:33.888Z,22.62
2023-01-04T04:37:00.235Z,22.61
2023-01-04T04:39:26.656Z,22.58
2023-01-04T04:41:53.011Z,22.54
2023-01-04T04:44:19.419Z,22.56
2023-01-04T04:46:45.764Z,22.62
2023-01-04T04:49:12.153Z,22.61
2023-01-04T04:51:38.499Z,22.63
2023-01-04T04:54:04.984Z,22.63
2023-01-04T04:56:31.327Z,22.63
2023-01-04T04:58:57.710Z,22.58
2023-01-04T05:01:24.210Z,22.58
2023-01-04T05:03:50.464Z,22.68
2023-01-04T05:06:17.135Z,22.72
2023-01-04T05:08:43.538Z,22.67
2023-01-04T05:11:09.890Z,22.70
2023-01-04T05:13:36.301Z,22.76
2023-01-04T05:16:02.709Z,22.81
2023-01-04T05:18:29.069Z,22.86
2023-01-04T05:20:55.453Z,22.84
2023-01-04T05:23:21.845Z,22.84
2023-01-04T05:25:48.221Z,22.87
2023-01-04T05:28:14.585Z,22.93
2023-01-04T05:30:40.930Z,22.91
2023-01-04T05:33:07.332Z,22.93
2023-01-04T05:35:33.683Z,22.98
2023-01-04T05:38:00.111Z,23.01
2023-01-04T05:40:26.453Z,23.06
2023-01-04T05:42:52.845Z,22.97
2023-01-04T05:45:19.179Z,22.99
2023-01-04T05:47:45.575Z,23.03
2023-01-04T05:50:11.923Z,23.10
2023-01-04T05:52:38.324Z,23.11
2023-01-04T05:55:04.674Z,23.13
2023-01-04T05:57:31.070Z,23.15
2023-01-04T05:59:57.431Z,23.13
2023-01-04T06:02:23.934Z,23.14
2023-01-04T06:04:56.350Z,23.12
2023-01-04T06:07:16.571Z,23.14
2023-01-04T06:09:42.981Z,23.14
2023-01-04T06:12:09.349Z,23.18
2023-01-04T06:14:35.817Z,23.20
2023-01-04T06:17:02.279Z,23.23
2023-01-04T06:19:28.641Z,23.25
2023-01-04T06:21:54.986Z,23.22
2023-01-04T06:24:21.371Z,23.24
2023-01-04T06:26:47.727Z,23.26
2023-01-04T06:29:14.125Z,23.29
2023-01-04T06:31:40.471Z,23.25
2023-01-04T06:34:06.863Z,23.23
2023-01-04T06:36:33.210Z,23.25
2023-01-04T06:38:59.624Z,23.35
2023-01-04T06:41:25.967Z,23.36
2023-01-04T06:43:52.382Z,23.42
2023-01-04T06:46:18.804Z,23.41
2023-01-04T06:48:45.157Z,23.44
2023-01-04T06:51:11.503Z,23.42
2023-01-04T06:53:37.906Z,23.40
2023-01-04T06:56:04.280Z,23.46
2023-01-04T06:58:30.653Z,23.40
2023-01-04T07:00:57.035Z,23.43
2023-01-04T07:03:23.521Z,23.41
2023-01-04T07:05:49.726Z,23.46
2023-01-04T07:08:16.128Z,23.50
2023-01-04T07:10:42.476Z,23.50
2023-01-04T07:13:08.926Z,23.51
2023-01-04T07:15:37.422Z,23.58
2023-01-04T07:18:01.684Z,23.59
2023-01-04T07:20:28.050Z,23.52
2023-01-04T07:22:54.449Z,23.64
2023-01-04T07:25:20.796Z,23.65
2023-01-04T07:27:47.209Z,23.57
2023-01-04T07:30:13.546Z,23.55
2023-01-04T07:32:39.937Z,23.58
2023-01-04T07:35:06.333Z,23.68
2023-01-04T07:37:32.701Z,23.69
2023-01-04T07:39:59.056Z,23.69
2023-01-04T07:42:25.445Z,23.64
2023-01-04T07:44:51.798Z,23.67
2023-01-04T07:47:18.200Z,23.70
2023-01-04T07:49:44.546Z,23.76
2023-01-04T07:52:10.974Z,23.76
2023-01-04T07:54:37.324Z,23.83
2023-01-04T07:57:03.725Z,23.86
2023-01-04T07:59:30.110Z,23.87
2023-01-04T08:01:56.589Z,23.90
2023-01-04T08:04:22.955Z,23.94
2023-01-04T08:06:49.303Z,23.91
2023-01-04T08:09:15.681Z,23.94
2023-01-04T08:11:42.087Z,24.00
2023-01-04T08:14:08.419Z,24.03
2023-01-04T08:16:34.951Z,24.11
2023-01-04T08:19:01.213Z,24.10
2023-01-04T08:21:27.617Z,24.09
2023-01-04T08:23:53.958Z,24.09
2023-01-04T08:26:20.362Z,24.09
2023-01-04T08:28:46.706Z,24.11
2023-01-04T08:31:13.163Z,24.16
2023-01-04T08:33:39.436Z,24.20
2023-01-04T08:36:05.859Z,24.18
2023-01-04T08:38:59.367Z,24.10
2023-01-04T08:41:07.103Z,24.03
2023-01-04T08:43:24.947Z,24.13
2023-01-04T08:45:51.342Z,24.19
2023-01-04T08:48:24.305Z,24.24
2023-01-04T08:50:44.100Z,24.17
2023-01-04T08:53:10.456Z,24.17
2023-01-04T08:55:36.839Z,24.24
2023-01-04T08:58:03.186Z,24.24
2023-01-04T09:00:29.596Z,24.26
2023-01-04T09:02:56.053Z,24.28
2023-01-04T09:05:23.268Z,24.26
2023-01-04T09:07:48.681Z,24.27
2023-01-04T09:10:15.077Z,24.30
2023-01-04T09:12:41.440Z,24.34
2023-01-04T09:15:07.831Z,24.34
2023-01-04T09:17:34.171Z,24.34
2023-01-04T09:20:00.607Z,24.30
2023-01-04T09:22:27.043Z,24.44
2023-01-04T09:24:53.375Z,24.39
2023-01-04T09:27:19.753Z,24.36
2023-01-04T09:29:46.158Z,24.34
2023-01-04T09:32:16.512Z,24.40
2023-01-04T09:34:38.940Z,24.30
2023-01-04T09:37:05.287Z,24.29
2023-01-04T09:39:31.685Z,24.36
2023-01-04T09:41:58.180Z,24.38
2023-01-04T09:44:34.528Z,24.42
2023-01-04T09:46:50.877Z,24.43
2023-01-04T09:49:17.206Z,24.38
2023-01-04T09:51:43.578Z,24.39
2023-01-04T09:54:09.953Z,24.40
2023-01-04T09:56:36.315Z,24.38
2023-01-04T09:59:02.719Z,24.38
2023-01-04T10:01:29.180Z,24.43
2023-01-04T10:03:55.463Z,24.42
2023-01-04T10:06:21.812Z,24.46
2023-01-04T10:08:48.313Z,24.44
2023-01-04T10:11:14.840Z,24.31
2023-01-04T10:13:41.240Z,24.32
2023-01-04T10:16:07.675Z,24.30
2023-01-04T10:19:29.683Z,24.29
2023-01-04T10:21:26.447Z,24.26
2023-01-04T10:23:26.788Z,24.32
2023-01-04T10:25:53.131Z,24.30
2023-01-04T10:28:19.543Z,24.28
2023-01-04T10:30:45.888Z,24.26
2023-01-04T10:33:12.310Z,24.25
2023-01-04T10:35:38.645Z,24.19
2023-01-04T10:38:05.077Z,24.21
2023-01-04T10:40:31.369Z,24.17
2023-01-04T10:42:57.799Z,24.19
2023-01-04T10:45:24.121Z,24.16
2023-01-04T10:47:50.536Z,24.14
2023-01-04T10:50:16.943Z,24.19
2023-01-04T10:52:43.266Z,24.20
2023-01-04T10:55:09.620Z,24.23
2023-01-04T10:57:36.039Z,24.23
2023-01-04T11:00:02.382Z,24.23
2023-01-04T11:02:28.880Z,24.26
2023-01-04T11:04:55.137Z,24.28
2023-01-04T11:07:21.722Z,24.29
2023-01-04T11:09:48.077Z,24.26
2023-01-04T11:12:14.472Z,24.30
2023-01-04T11:14:40.827Z,24.33
2023-01-04T11:17:07.211Z,24.36
2023-01-04T11:19:33.583Z,24.34
2023-01-04T11:21:59.975Z,24.41
2023-01-04T11:24:34.071Z,24.48
2023-01-04T11:26:52.812Z,24.46
2023-01-04T11:29:19.156Z,24.46
2023-01-04T11:31:45.569Z,24.36
2023-01-04T11:34:11.928Z,24.35
2023-01-04T11:36:38.318Z,24.36
2023-01-04T11:39:04.676Z,24.38
2023-01-04T11:41:31.054Z,24.39
2023-01-04T11:43:57.404Z,24.41
2023-01-04T11:46:23.931Z,24.44
2023-01-04T11:48:50.282Z,24.47
2023-01-04T11:51:17.277Z,24.49
2023-01-04T11:53:43.078Z,24.55
2023-01-04T11:56:09.471Z,24.58
2023-01-04T11:58:35.853Z,24.60
2023-01-04T12:01:02.243Z,24.59
2023-01-04T12:03:28.592Z,24.57
2023-01-04T12:05:54.979Z,24.51
2023-01-04T12:08:21.332Z,24.58
2023-01-04T12:10:47.753Z,24.53
2023-01-04T12:13:14.090Z,24.53
2023-01-04T12:15:40.495Z,24.57
2023-01-04T12:18:06.849Z,24.58
2023-01-04T12:20:33.237Z,24.65
2023-01-04T12:22:59.578Z,24.66
2023-01-04T12:25:26.004Z,24.77
2023-01-04T12:27:52.328Z,24.95
2023-01-04T12:30:19.933Z,24.99
2023-01-04T12:32:45.110Z,25.05
2023-01-04T12:35:11.465Z,25.02
2023-01-04T12:37:37.799Z,25.00
2023-01-04T12:40:04.210Z,24.98
2023-01-04T12:42:30.567Z,24.88
2023-01-04T12:44:56.941Z,25.00
2023-01-04T12:47:23.281Z,24.97
2023-01-04T12:49:49.683Z,24.91
2023-01-04T12:52:42.614Z,25.16
2023-01-04T12:54:42.415Z,24.77
2023-01-04T12:57:08.769Z,24.76
2023-01-04T12:59:35.162Z,24.79
2023-01-04T13:02:01.644Z,24.88
2023-01-04T13:04:27.906Z,24.79
2023-01-04T13:06:54.240Z,24.78
2023-01-04T13:09:24.523Z,24.83
2023-01-04T13:11:46.992Z,24.85
2023-01-04T13:14:13.372Z,24.91
2023-01-04T13:16:39.832Z,24.74
2023-01-04T13:19:06.111Z,24.77
2023-01-04T13:21:32.452Z,24.87
2023-01-04T13:23:58.864Z,24.78
2023-01-04T13:26:25.195Z,24.76
2023-01-04T13:28:57.943Z,24.84
2023-01-04T13:31:17.964Z,24.97
2023-01-04T13:33:44.371Z,24.99
2023-01-04T13:36:10.739Z,24.85
2023-01-04T13:38:37.128Z,25.06
2023-01-04T13:41:03.469Z,24.80
2023-01-04T13:43:29.858Z,24.74
2023-01-04T13:46:03.762Z,25.09
2023-01-04T13:48:22.611Z,25.50
2023-01-04T13:50:49.076Z,24.82
2023-01-04T13:53:15.376Z,24.68
2023-01-04T13:55:41.767Z,24.63
2023-01-04T13:58:08.238Z,24.62
2023-01-04T14:03:01.061Z,24.65
2023-01-04T14:05:27.259Z,24.68
2023-01-04T14:07:53.652Z,24.64
2023-01-04T14:10:20.010Z,24.59
2023-01-04T14:12:46.388Z,24.62
2023-01-04T14:15:12.752Z,24.69
2023-01-04T14:20:05.568Z,25.03
2023-01-04T14:22:32.008Z,25.00
2023-01-04T14:25:09.084Z,25.32
2023-01-04T14:27:24.773Z,25.44
2023-01-04T14:29:51.127Z,25.46
2023-01-04T14:32:17.578Z,25.49
2023-01-04T14:34:43.866Z,25.53
2023-01-04T14:37:10.275Z,25.63
2023-01-04T14:39:36.599Z,25.66
2023-01-04T14:42:03.003Z,25.66
2023-01-04T14:44:29.350Z,25.66
2023-01-04T14:46:55.996Z,25.66
2023-01-04T14:49:22.320Z,25.71
2023-01-04T14:51:48.654Z,25.76
2023-01-04T14:54:20.454Z,25.76
2023-01-04T14:56:41.452Z,25.73
2023-01-04T14:59:07.882Z,25.69
2023-01-04T15:01:34.389Z,25.75
2023-01-04T15:04:00.683Z,25.78
2023-01-04T15:06:27.008Z,25.80
2023-01-04T15:08:53.331Z,25.78
2023-01-04T15:11:19.796Z,25.77
2023-01-04T15:13:46.147Z,25.80
2023-01-04T15:16:12.618Z,25.72
2023-01-04T15:18:38.913Z,25.76
2023-01-04T15:21:05.346Z,25.77
2023-01-04T15:23:31.684Z,25.74
2023-01-04T15:25:58.086Z,25.78
2023-01-04T15:28:24.457Z,25.73
2023-01-04T15:30:50.954Z,25.71
2023-01-04T15:33:17.267Z,25.76
2023-01-04T15:35:44.424Z,25.78
2023-01-04T15:38:17.709Z,25.77
2023-01-04T15:40:37.188Z,25.73
2023-01-04T15:43:03.556Z,25.65
2023-01-04T15:45:29.964Z,25.72
2023-01-04T15:47:56.308Z,25.72
2023-01-04T15:50:22.716Z,25.74
2023-01-04T15:52:49.062Z,25.74
2023-01-04T15:55:15.467Z,25.69
2023-01-04T15:57:43.917Z,25.69
2023-01-04T16:00:08.207Z,25.73
2023-01-04T16:02:34.731Z,25.69
2023-01-04T16:05:00.949Z,25.66
2023-01-04T16:07:32.666Z,25.62
2023-01-04T16:09:53.718Z,25.68
2023-01-04T16:12:20.027Z,25.66
2023-01-04T16:14:46.429Z,25.65
2023-01-04T16:17:12.785Z,25.64
2023-01-04T16:19:39.167Z,25.66
2023-01-04T16:22:05.510Z,25.67
2023-01-04T16:26:58.250Z,25.60
2023-01-04T16:29:24.635Z,25.59
2023-01-04T16:34:36.281Z,25.54
2023-01-04T16:37:02.631Z,25.53
2023-01-04T16:41:55.422Z,25.54
2023-01-04T16:44:21.758Z,25.59
2023-01-04T16:46:48.181Z,25.53
2023-01-04T16:49:14.493Z,25.50
2023-01-04T16:51:40.868Z,25.43
2023-01-04T16:54:07.203Z,25.48
2023-01-04T16:56:33.587Z,25.45
2023-01-04T16:58:59.926Z,25.44
2023-01-04T17:01:26.408Z,25.36
2023-01-04T17:03:52.674Z,25.45
2023-01-04T17:06:19.032Z,25.49
2023-01-04T17:08:45.404Z,25.49
2023-01-04T17:11:51.006Z,25.44
2023-01-04T17:13:38.127Z,25.49
2023-01-04T17:16:04.526Z,25.40
2023-01-04T17:18:30.880Z,25.39
2023-01-04T17:21:16.863Z,25.40
2023-01-04T17:23:23.601Z,25.43
2023-01-04T17:25:49.987Z,25.49
2023-01-04T17:28:21.273Z,25.37
2023-01-04T17:30:42.732Z,25.37
2023-01-04T17:33:09.073Z,25.44
2023-01-04T17:35:35.457Z,25.43
2023-01-04T17:38:01.792Z,25.44
2023-01-04T17:40:28.182Z,25.40
2023-01-04T17:42:54.516Z,25.39
2023-01-04T17:45:21.164Z,25.44
2023-01-04T17:47:47.261Z,25.43
2023-01-04T17:50:13.742Z,25.45
2023-01-04T17:52:40.093Z,25.46
2023-01-04T17:55:06.460Z,25.46
2023-01-04T17:57:32.838Z,25.44
2023-01-04T17:59:59.220Z,25.36
2023-01-04T18:02:25.658Z,25.37
2023-01-04T18:04:51.970Z,25.35
2023-01-04T18:07:18.326Z,25.33
2023-01-04T18:09:44.693Z,25.37
2023-01-04T18:12:13.487Z,25.33
2023-01-04T18:14:39.880Z,25.28
2023-01-04T18:17:06.434Z,25.31
2023-01-04T18:19:32.597Z,25.29
2023-01-04T18:21:58.980Z,25.25
2023-01-04T18:24:40.726Z,25.30
2023-01-04T18:29:18.043Z,25.27
2023-01-04T18:31:44.394Z,25.29
2023-01-04T18:34:10.765Z,25.29
2023-01-04T18:36:42.488Z,25.30
2023-01-04T18:39:03.496Z,25.23
2023-01-04T18:41:29.838Z,25.27
2023-01-04T18:44:13.464Z,25.27
2023-01-04T18:46:22.628Z,25.27
2023-01-04T18:48:48.965Z,25.28
2023-01-04T18:51:15.297Z,25.29
2023-01-04T18:53:41.685Z,25.25
2023-01-04T18:56:08.029Z,25.22
2023-01-04T18:58:34.396Z,25.24
2023-01-04T19:01:00.896Z,25.23
2023-01-04T19:03:27.295Z,25.22
2023-01-04T19:05:53.612Z,25.25
2023-01-04T19:08:20.006Z,25.22
2023-01-04T19:10:46.347Z,25.24
2023-01-04T19:13:12.721Z,25.24
2023-01-04T19:15:44.047Z,25.24
2023-01-04T19:18:05.437Z,25.22
2023-01-04T19:20:31.785Z,25.22
2023-01-04T19:22:58.169Z,25.21
2023-01-04T19:25:28.234Z,25.20
2023-01-04T19:27:50.917Z,25.22
2023-01-04T19:30:17.243Z,25.19
2023-01-04T19:32:43.634Z,25.22
2023-01-04T19:35:09.978Z,25.18
2023-01-04T19:37:36.368Z,25.18
2023-01-04T19:40:02.701Z,25.19
2023-01-04T19:42:29.081Z,25.19
2023-01-04T19:44:55.443Z,25.14
2023-01-04T19:47:21.823Z,25.13
2023-01-04T19:49:48.161Z,25.13
2023-01-04T19:52:14.580Z,25.08
2023-01-04T19:54:40.881Z,25.08
2023-01-04T19:57:07.268Z,25.03
2023-01-04T19:59:33.602Z,25.02
2023-01-04T20:02:00.088Z,25.03
2023-01-04T20:04:26.333Z,25.01
2023-01-04T20:06:52.716Z,25.00
2023-01-04T20:09:19.064Z,24.99
2023-01-04T20:11:45.447Z,24.99
2023-01-04T20:14:11.798Z,24.97
2023-01-04T20:16:38.216Z,25.00
2023-01-04T20:19:04.557Z,24.97
2023-01-04T20:21:30.960Z,24.95
2023-01-04T20:23:57.291Z,24.94
2023-01-04T20:26:23.681Z,24.90
2023-01-04T20:28:50.025Z,24.91
2023-01-04T20:31:16.452Z,24.87
2023-01-04T20:33:42.733Z,24.89
2023-01-04T20:36:09.144Z,24.85
2023-01-04T20:38:39.656Z,24.87
2023-01-04T20:41:01.924Z,24.86
2023-01-04T20:43:28.342Z,24.85
2023-01-04T20:45:54.754Z,24.87
2023-01-04T20:48:21.115Z,24.86
2023-01-04T20:50:47.499Z,24.84
2023-01-04T20:53:13.835Z,24.86
2023-01-04T20:55:40.837Z,24.83
2023-01-04T20:58:07.131Z,24.80
2023-01-04T21:00:33.511Z,24.83
2023-01-04T21:02:59.954Z,24.84
2023-01-04T21:05:26.253Z,24.78
2023-01-04T21:07:52.601Z,24.78
2023-01-04T21:10:18.986Z,24.78
2023-01-04T21:12:47.532Z,24.84
2023-01-04T21:15:15.155Z,24.73
2023-01-04T21:17:40.274Z,24.77
2023-01-04T21:20:06.665Z,24.75
2023-01-04T21:22:33.027Z,24.74
2023-01-04T21:24:59.414Z,24.77
2023-01-04T21:27:25.754Z,24.77
2023-01-04T21:29:52.131Z,24.76
2023-01-04T21:32:18.484Z,24.74
2023-01-04T21:34:44.859Z,24.73
2023-01-04T21:37:11.204Z,24.71
2023-01-04T21:39:37.619Z,24.69
2023-01-04T21:42:03.981Z,24.71
2023-01-04T21:44:30.395Z,24.68
2023-01-04T21:46:56.762Z,24.71
2023-01-04T21:49:23.126Z,24.68
2023-01-04T21:51:49.472Z,24.68
2023-01-04T21:54:15.858Z,24.69
2023-01-04T21:56:42.191Z,24.68
2023-01-04T21:59:08.615Z,24.68
2023-01-04T22:01:35.703Z,24.63
2023-01-04T22:04:01.449Z,24.68
2023-01-04T22:06:27.699Z,24.64
2023-01-04T22:08:54.115Z,24.66
2023-01-04T22:11:20.467Z,24.61
2023-01-04T22:13:46.852Z,24.60
2023-01-04T22:16:13.241Z,24.61
2023-01-04T22:18:39.568Z,24.60
2023-01-04T22:21:05.947Z,24.58
2023-01-04T22:23:32.332Z,24.60
2023-01-04T22:25:58.663Z,24.59
2023-01-04T22:28:25.053Z,24.55
2023-01-04T22:30:51.395Z,24.54
2023-01-04T22:33:17.775Z,24.51
2023-01-04T22:35:44.115Z,24.55
2023-01-04T22:38:10.529Z,24.53
2023-01-04T22:40:36.918Z,24.53
2023-01-04T22:43:03.339Z,24.53
2023-01-04T22:45:30.785Z,24.51
2023-01-04T22:47:57.174Z,24.47
2023-01-04T22:50:23.517Z,24.50
2023-01-04T22:52:51.148Z,24.14
2023-01-04T22:55:16.258Z,23.69
2023-01-04T22:57:42.689Z,23.61
2023-01-04T23:00:09.003Z,24.04
2023-01-04T23:02:35.472Z,24.32
2023-01-04T23:05:01.752Z,24.36
2023-01-04T23:07:28.140Z,24.41
2023-01-04T23:09:54.477Z,24.45
2023-01-04T23:12:20.873Z,24.44
2023-01-04T23:14:47.211Z,24.42
2023-01-04T23:17:13.602Z,24.45
2023-01-04T23:19:39.966Z,24.43
2023-01-04T23:22:06.380Z,24.41
2023-01-04T23:24:32.722Z,24.43
2023-01-04T23:26:59.114Z,24.42
2023-01-04T23:29:29.244Z,24.40
2023-01-04T23:31:51.919Z,24.40
2023-01-04T23:34:18.190Z,24.43
2023-01-04T23:36:44.579Z,24.42
2023-01-04T23:39:10.935Z,24.39
2023-01-04T23:41:37.312Z,24.33
2023-01-04T23:44:03.664Z,24.38
2023-01-04T23:46:30.077Z,23.47
2023-01-04T23:48:56.446Z,23.31
2023-01-04T23:51:22.841Z,23.29
2023-01-04T23:53:49.191Z,23.39
2023-01-04T23:56:15.577Z,23.51
2023-01-04T23:58:41.928Z,23.54
